createdAt,value
2023-02-06T00:01:46.369Z,98733.56
2023-02-06T00:04:14.383Z,98729.22
2023-02-06T00:06:42.032Z,98729.84
2023-02-06T00:09:09.860Z,98732.75
2023-02-06T00:11:37.402Z,98736.28
2023-02-06T00:14:05.240Z,98729.59
2023-02-06T00:16:34.338Z,98731.06
2023-02-06T00:19:03.857Z,98735.44
2023-02-06T00:21:32.041Z,98741.03
2023-02-06T00:24:01.454Z,98741.84
2023-02-06T00:26:29.696Z,98726.22
2023-02-06T00:28:57.469Z,98739.38
2023-02-06T00:31:25.497Z,98742.06
2023-02-06T00:33:53.156Z,98734.78
2023-02-06T00:36:22.194Z,98736.91
2023-02-06T00:38:51.516Z,98734.88
2023-02-06T00:41:19.138Z,98739.59
2023-02-06T00:43:46.874Z,98741.09
2023-02-06T00:46:14.484Z,98740.56
2023-02-06T00:48:44.071Z,98734.22
2023-02-06T00:51:11.638Z,98738.34
2023-02-06T00:53:40.690Z,98737.94
2023-02-06T00:56:08.195Z,98739.72
2023-02-06T00:58:35.856Z,98743.97
2023-02-06T01:01:03.858Z,98741.09
2023-02-06T01:03:31.443Z,98741.03
2023-02-06T01:05:59.047Z,98739.16
2023-02-06T01:08:26.741Z,98736.66
2023-02-06T01:10:55.772Z,98737.13
2023-02-06T01:13:23.460Z,98733.56
2023-02-06T01:15:51.644Z,98731.50
2023-02-06T01:18:19.261Z,98741.28
2023-02-06T01:20:46.795Z,98739.38
2023-02-06T01:23:14.303Z,98736.66
2023-02-06T01:25:42.364Z,98745.00
2023-02-06T01:28:11.380Z,98740.38
2023-02-06T01:30:39.607Z,98742.31
2023-02-06T01:33:07.188Z,98745.41
2023-02-06T01:35:35.492Z,98740.63
2023-02-06T01:38:03.188Z,98741.03
2023-02-06T01:40:30.674Z,98742.25
2023-02-06T01:42:58.424Z,98734.47
2023-02-06T01:45:45.496Z,98737.06
2023-02-06T01:48:19.354Z,98731.97
2023-02-06T01:50:51.589Z,98738.06
2023-02-06T01:53:22.632Z,98736.03
2023-02-06T01:55:51.811Z,98750.16
2023-02-06T01:58:27.982Z,98750.16
2023-02-06T02:00:59.850Z,98750.16
2023-02-06T02:03:28.963Z,98752.56
2023-02-06T02:06:01.794Z,98757.59
2023-02-06T02:08:36.820Z,98763.34
2023-02-06T02:11:06.493Z,98762.16
2023-02-06T02:13:35.099Z,98768.41
2023-02-06T02:16:11.813Z,98771.72
2023-02-06T02:18:56.191Z,98761.69
2023-02-06T02:21:50.193Z,98777.13
2023-02-06T02:24:26.897Z,98767.94
2023-02-06T02:27:19.615Z,98764.47
2023-02-06T02:30:20.300Z,98767.53
2023-02-06T02:33:26.627Z,98766.84
2023-02-06T02:36:03.289Z,98761.31
2023-02-06T02:38:44.160Z,98769.25
2023-02-06T02:41:19.234Z,98765.88
2023-02-06T02:43:55.154Z,98763.63
2023-02-06T02:46:26.836Z,98761.06
2023-02-06T02:48:59.635Z,98753.78
2023-02-06T02:51:28.763Z,98755.91
2023-02-06T02:53:57.219Z,98763.81
2023-02-06T02:56:26.821Z,98761.06
2023-02-06T02:58:59.515Z,98766.91
2023-02-06T03:01:32.234Z,98777.88
2023-02-06T03:04:06.104Z,98779.34
2023-02-06T03:06:54.060Z,98777.84
2023-02-06T03:09:32.550Z,98773.16
2023-02-06T03:12:10.562Z,98773.63
2023-02-06T03:14:44.409Z,98774.81
2023-02-06T03:17:18.732Z,98779.22
2023-02-06T03:19:51.979Z,98782.28
2023-02-06T03:22:23.975Z,98769.44
2023-02-06T03:24:52.981Z,98775.03
2023-02-06T03:27:22.857Z,98782.28
2023-02-06T03:29:55.081Z,98780.59
2023-02-06T03:32:25.164Z,98790.66
2023-02-06T03:34:59.452Z,98786.84
2023-02-06T03:37:29.584Z,98782.72
2023-02-06T03:40:00.448Z,98782.72
2023-02-06T03:42:29.821Z,98781.31
2023-02-06T03:45:01.936Z,98787.84
2023-02-06T03:47:31.272Z,98785.16
2023-02-06T03:50:00.650Z,98787.59
2023-02-06T03:52:36.113Z,98788.06
2023-02-06T03:55:08.589Z,98794.66
2023-02-06T03:57:37.848Z,98788.88
2023-02-06T04:00:09.650Z,98784.50
2023-02-06T04:02:45.292Z,98786.56
2023-02-06T04:05:13.352Z,98786.38
2023-02-06T04:07:42.516Z,98794.66
2023-02-06T04:10:10.524Z,98784.91
2023-02-06T04:12:38.179Z,98790.75
2023-02-06T04:15:06.454Z,98789.66
2023-02-06T04:17:49.806Z,98791.78
2023-02-06T04:20:21.941Z,98792.13
2023-02-06T04:22:50.916Z,98795.03
2023-02-06T04:25:18.638Z,98788.41
2023-02-06T04:27:46.294Z,98796.72
2023-02-06T04:30:14.724Z,98799.75
2023-02-06T04:32:42.229Z,98792.66
2023-02-06T04:35:09.838Z,98789.53
2023-02-06T04:37:37.362Z,98798.38
2023-02-06T04:40:07.288Z,98802.56
2023-02-06T04:42:34.828Z,98806.31
2023-02-06T04:45:02.439Z,98797.91
2023-02-06T04:47:29.979Z,98810.19
2023-02-06T04:49:57.484Z,98807.50
2023-02-06T04:52:25.004Z,98808.59
2023-02-06T04:54:52.557Z,98807.66
2023-02-06T04:57:21.556Z,98813.03
2023-02-06T04:59:49.112Z,98818.06
2023-02-06T05:02:16.779Z,98814.25
2023-02-06T05:04:44.431Z,98818.97
2023-02-06T05:07:11.952Z,98813.97
2023-02-06T05:09:39.521Z,98812.56
2023-02-06T05:12:07.319Z,98809.88
2023-02-06T05:14:36.319Z,98820.78
2023-02-06T05:17:03.966Z,98820.09
2023-02-06T05:19:31.470Z,98818.34
2023-02-06T05:21:59.398Z,98827.94
2023-02-06T05:24:27.061Z,98820.78
2023-02-06T05:26:54.638Z,98827.38
2023-02-06T05:29:22.386Z,98828.88
2023-02-06T05:31:52.481Z,98830.72
2023-02-06T05:34:20.076Z,98824.47
2023-02-06T05:36:47.628Z,98826.28
2023-02-06T05:39:15.260Z,98834.06
2023-02-06T05:41:42.841Z,98821.78
2023-02-06T05:44:11.464Z,98828.19
2023-02-06T05:46:39.074Z,98823.94
2023-02-06T05:49:08.140Z,98833.34
2023-02-06T05:51:36.250Z,98822.16
2023-02-06T05:54:04.649Z,98820.31
2023-02-06T05:56:32.468Z,98820.66
2023-02-06T05:59:00.099Z,98822.81
2023-02-06T06:01:28.201Z,98827.38
2023-02-06T06:03:55.954Z,98835.00
2023-02-06T06:06:24.991Z,98834.69
2023-02-06T06:08:52.735Z,98829.22
2023-02-06T06:11:20.629Z,98840.47
2023-02-06T06:13:48.324Z,98836.97
2023-02-06T06:16:16.007Z,98840.56
2023-02-06T06:18:43.600Z,98842.34
2023-02-06T06:21:11.200Z,98833.25
2023-02-06T06:23:40.214Z,98840.00
2023-02-06T06:26:07.850Z,98838.44
2023-02-06T06:28:37.537Z,98837.06
2023-02-06T06:31:07.966Z,98843.25
2023-02-06T06:33:36.188Z,98834.69
2023-02-06T06:36:04.271Z,98844.66
2023-02-06T06:38:31.962Z,98840.56
2023-02-06T06:41:00.942Z,98846.03
2023-02-06T06:43:28.840Z,98836.09
2023-02-06T06:45:57.108Z,98843.25
2023-02-06T06:48:24.698Z,98831.75
2023-02-06T06:50:52.263Z,98833.88
2023-02-06T06:53:20.057Z,98838.25
2023-02-06T06:55:47.676Z,98832.78
2023-02-06T06:58:16.741Z,98840.00
2023-02-06T07:00:44.533Z,98837.13
2023-02-06T07:03:12.587Z,98840.56
2023-02-06T07:05:40.852Z,98836.03
2023-02-06T07:08:08.357Z,98843.81
2023-02-06T07:10:35.891Z,98837.22
2023-02-06T07:13:03.508Z,98832.56
2023-02-06T07:15:32.540Z,98841.78
2023-02-06T07:18:00.329Z,98832.00
2023-02-06T07:20:28.370Z,98834.53
2023-02-06T07:22:55.899Z,98837.94
2023-02-06T07:25:23.824Z,98841.03
2023-02-06T07:27:51.668Z,98833.59
2023-02-06T07:30:19.539Z,98836.28
2023-02-06T07:32:48.646Z,98838.81
2023-02-06T07:35:16.411Z,98841.91
2023-02-06T07:37:44.029Z,98832.47
2023-02-06T07:40:13.448Z,98833.78
2023-02-06T07:42:41.094Z,98828.47
2023-02-06T07:45:17.085Z,98837.69
2023-02-06T07:47:44.673Z,98834.69
2023-02-06T07:50:13.650Z,98833.34
2023-02-06T07:52:41.211Z,98831.75
2023-02-06T07:55:08.930Z,98833.03
2023-02-06T07:57:36.673Z,98832.22
2023-02-06T08:00:05.457Z,98833.78
2023-02-06T08:02:39.404Z,98837.94
2023-02-06T08:05:07.851Z,98836.56
2023-02-06T08:07:37.019Z,98842.78
2023-02-06T08:10:05.349Z,98839.66
2023-02-06T08:12:32.910Z,98839.94
2023-02-06T08:15:00.483Z,98837.06
2023-02-06T08:17:28.582Z,98836.28
2023-02-06T08:19:56.139Z,98839.38
2023-02-06T08:22:23.719Z,98836.28
2023-02-06T08:24:53.241Z,98837.97
2023-02-06T08:27:20.826Z,98836.31
2023-02-06T08:29:48.416Z,98834.38
2023-02-06T08:32:15.966Z,98833.59
2023-02-06T08:34:43.492Z,98839.06
2023-02-06T08:37:11.791Z,98839.06
2023-02-06T08:39:39.485Z,98832.47
2023-02-06T08:42:08.606Z,98839.19
2023-02-06T08:44:36.370Z,98834.44
2023-02-06T08:47:09.992Z,98833.69
2023-02-06T08:49:38.665Z,98833.97
2023-02-06T08:52:06.330Z,98836.03
2023-02-06T08:54:36.332Z,98839.19
2023-02-06T08:57:04.826Z,98833.44
2023-02-06T08:59:34.101Z,98844.41
2023-02-06T09:02:02.474Z,98837.50
2023-02-06T09:04:31.020Z,98828.97
2023-02-06T09:06:58.662Z,98837.41
2023-02-06T09:09:26.325Z,98832.69
2023-02-06T09:11:53.931Z,98843.81
2023-02-06T09:14:21.610Z,98835.75
2023-02-06T09:16:50.739Z,98846.44
2023-02-06T09:19:18.327Z,98836.00
2023-02-06T09:21:45.892Z,98844.13
2023-02-06T09:24:13.463Z,98846.03
2023-02-06T09:26:58.543Z,98843.34
2023-02-06T09:29:28.546Z,98846.03
2023-02-06T09:31:58.609Z,98849.66
2023-02-06T09:34:26.700Z,98846.34
2023-02-06T09:36:54.725Z,98847.34
2023-02-06T09:39:22.766Z,98844.28
2023-02-06T09:41:52.795Z,98842.59
2023-02-06T09:44:25.554Z,98843.91
2023-02-06T09:46:57.089Z,98838.97
2023-02-06T09:49:39.699Z,98829.41
2023-02-06T09:52:22.681Z,98848.19
2023-02-06T09:54:58.103Z,98840.34
2023-02-06T09:57:34.664Z,98842.56
2023-02-06T10:00:11.774Z,98835.50
2023-02-06T10:02:58.053Z,98841.38
2023-02-06T10:05:40.191Z,98844.47
2023-02-06T10:08:21.657Z,98840.66
2023-02-06T10:10:53.826Z,98843.78
2023-02-06T10:13:26.221Z,98837.97
2023-02-06T10:15:58.029Z,98840.84
2023-02-06T10:18:32.677Z,98840.09
2023-02-06T10:21:07.074Z,98835.34
2023-02-06T10:23:41.914Z,98836.81
2023-02-06T10:26:11.570Z,98829.97
2023-02-06T10:28:39.381Z,98832.00
2023-02-06T10:31:41.724Z,98847.22
2023-02-06T10:34:33.045Z,98851.25
2023-02-06T10:37:16.920Z,98841.28
2023-02-06T10:40:02.836Z,98848.75
2023-02-06T10:42:41.447Z,98855.81
2023-02-06T10:45:22.017Z,98851.78
2023-02-06T10:47:54.359Z,98861.94
2023-02-06T10:50:28.533Z,98861.94
2023-02-06T10:53:01.261Z,98858.03
2023-02-06T10:55:32.559Z,98862.38
2023-02-06T10:58:07.611Z,98863.97
2023-02-06T11:00:36.540Z,98869.38
2023-02-06T11:03:08.196Z,98874.13
2023-02-06T11:05:36.676Z,98871.91
2023-02-06T11:08:14.402Z,98860.34
2023-02-06T11:10:42.200Z,98864.94
2023-02-06T11:13:15.346Z,98870.41
2023-02-06T11:15:51.473Z,98873.94
2023-02-06T11:18:24.851Z,98872.66
2023-02-06T11:20:54.842Z,98873.94
2023-02-06T11:23:27.201Z,98875.97
2023-02-06T11:26:06.333Z,98869.94
2023-02-06T11:28:36.042Z,98871.91
2023-02-06T11:31:05.279Z,98878.28
2023-02-06T11:33:46.274Z,98874.13
2023-02-06T11:36:26.877Z,98880.81
2023-02-06T11:38:58.189Z,98878.50
2023-02-06T11:41:26.449Z,98877.28
2023-02-06T11:43:57.779Z,98874.84
2023-02-06T11:46:26.825Z,98879.44
2023-02-06T11:49:05.271Z,98876.06
2023-02-06T11:51:47.230Z,98873.75
2023-02-06T11:54:22.535Z,98879.59
2023-02-06T11:56:59.526Z,98876.06
2023-02-06T11:59:27.380Z,98871.50
2023-02-06T12:01:55.091Z,98877.69
2023-02-06T12:04:25.157Z,98878.72
2023-02-06T12:06:58.960Z,98881.50
2023-02-06T12:09:28.822Z,98872.44
2023-02-06T12:12:00.546Z,98874.59
2023-02-06T12:14:33.353Z,98870.03
2023-02-06T12:17:04.322Z,98876.94
2023-02-06T12:19:36.179Z,98882.59
2023-02-06T12:22:12.582Z,98882.41
2023-02-06T12:24:44.506Z,98884.47
2023-02-06T12:27:16.742Z,98883.91
2023-02-06T12:29:47.335Z,98887.41
2023-02-06T12:32:19.801Z,98883.69
2023-02-06T12:34:52.240Z,98883.91
2023-02-06T12:37:25.950Z,98881.00
2023-02-06T12:39:55.095Z,98884.66
2023-02-06T12:42:38.521Z,98887.34
2023-02-06T12:45:17.877Z,98888.66
2023-02-06T12:47:52.985Z,98892.19
2023-02-06T12:50:25.404Z,98895.50
2023-02-06T12:52:59.185Z,98893.84
2023-02-06T12:55:31.966Z,98902.63
2023-02-06T12:58:00.201Z,98905.31
2023-02-06T13:00:46.263Z,98906.50
2023-02-06T13:03:22.981Z,98903.59
2023-02-06T13:05:53.856Z,98906.50
2023-02-06T13:08:26.882Z,98909.41
2023-02-06T13:11:06.291Z,98911.91
2023-02-06T13:13:36.555Z,98919.81
2023-02-06T13:16:05.961Z,98912.09
2023-02-06T13:18:52.777Z,98915.63
2023-02-06T13:21:25.622Z,98924.38
2023-02-06T13:24:13.924Z,98917.50
2023-02-06T13:27:17.660Z,98914.97
2023-02-06T13:29:46.351Z,98917.09
2023-02-06T13:32:41.185Z,98917.09
2023-02-06T13:35:27.978Z,98923.72
2023-02-06T13:38:28.846Z,98928.09
2023-02-06T13:41:19.079Z,98934.53
2023-02-06T13:43:54.377Z,98937.59
2023-02-06T13:46:24.688Z,98929.69
2023-02-06T13:49:11.976Z,98937.78
2023-02-06T13:51:51.969Z,98932.19
2023-02-06T13:54:50.060Z,98941.13
2023-02-06T13:57:32.706Z,98943.44
2023-02-06T14:00:10.548Z,98940.09
2023-02-06T14:02:41.071Z,98945.50
2023-02-06T14:05:13.374Z,98946.53
2023-02-06T14:08:00.888Z,98936.38
2023-02-06T14:10:57.689Z,98945.69
2023-02-06T14:13:39.558Z,98942.81
2023-02-06T14:16:25.005Z,98949.06
2023-02-06T14:19:00.607Z,98948.03
2023-02-06T14:21:44.752Z,98941.78
2023-02-06T14:24:41.780Z,98949.06
2023-02-06T14:27:27.382Z,98951.06
2023-02-06T14:30:04.245Z,98959.53
2023-02-06T14:32:50.816Z,98951.59
2023-02-06T14:35:37.725Z,98952.94
2023-02-06T14:38:39.412Z,98959.38
2023-02-06T14:41:07.648Z,98961.38
2023-02-06T14:43:40.070Z,98964.91
2023-02-06T14:46:11.880Z,98960.53
2023-02-06T14:48:45.994Z,98962.78
2023-02-06T14:51:22.970Z,98968.66
2023-02-06T14:53:56.847Z,98962.69
2023-02-06T14:56:30.773Z,98965.00
2023-02-06T14:59:14.915Z,98961.66
2023-02-06T15:01:44.356Z,98967.78
2023-02-06T15:04:15.446Z,98975.41
2023-02-06T15:06:50.105Z,98978.59
2023-02-06T15:09:27.480Z,98967.53
2023-02-06T15:11:56.969Z,98977.09
2023-02-06T15:14:26.917Z,98978.22
2023-02-06T15:16:55.577Z,98981.03
2023-02-06T15:19:26.832Z,98976.53
2023-02-06T15:21:59.513Z,98985.78
2023-02-06T15:24:41.863Z,98987.78
2023-02-06T15:27:17.882Z,98987.88
2023-02-06T15:29:48.957Z,98986.13
2023-02-06T15:32:26.230Z,98990.78
2023-02-06T15:34:55.563Z,98983.91
2023-02-06T15:37:26.185Z,98992.84
2023-02-06T15:39:54.557Z,98987.78
2023-02-06T15:42:23.033Z,98990.97
2023-02-06T15:44:51.265Z,98989.94
2023-02-06T15:47:21.517Z,98987.44
2023-02-06T15:49:51.917Z,98988.09
2023-02-06T15:52:37.130Z,98986.41
2023-02-06T15:55:06.198Z,98996.56
2023-02-06T15:57:38.753Z,98995.53
2023-02-06T16:00:15.411Z,98989.75
2023-02-06T16:02:43.918Z,98991.81
2023-02-06T16:05:24.324Z,98989.59
2023-02-06T16:07:53.602Z,98989.38
2023-02-06T16:10:24.519Z,98999.53
2023-02-06T16:12:53.349Z,99003.25
2023-02-06T16:15:26.220Z,99001.56
2023-02-06T16:17:54.006Z,98997.22
2023-02-06T16:20:34.706Z,98999.53
2023-02-06T16:23:25.084Z,98997.69
2023-02-06T16:26:05.723Z,98999.59
2023-02-06T16:28:41.279Z,99002.41
2023-02-06T16:31:13.364Z,98997.84
2023-02-06T16:33:42.782Z,99000.56
2023-02-06T16:36:12.674Z,99007.78
2023-02-06T16:38:48.249Z,99004.75
2023-02-06T16:41:26.692Z,99015.44
2023-02-06T16:43:54.936Z,99012.06
2023-02-06T16:46:22.666Z,99007.53
2023-02-06T16:48:50.162Z,99019.13
2023-02-06T16:51:20.030Z,99018.41
2023-02-06T16:53:50.190Z,99008.56
2023-02-06T16:56:20.859Z,99015.06
2023-02-06T16:58:49.155Z,99013.19
2023-02-06T17:01:20.290Z,99012.00
2023-02-06T17:03:48.414Z,99011.53
2023-02-06T17:06:19.915Z,99013.88
2023-02-06T17:08:49.859Z,99020.84
2023-02-06T17:11:17.265Z,99018.31
2023-02-06T17:13:45.332Z,99027.44
2023-02-06T17:16:17.768Z,99027.72
2023-02-06T17:18:45.643Z,99023.06
2023-02-06T17:21:14.882Z,99021.03
2023-02-06T17:23:43.548Z,99019.59
2023-02-06T17:26:15.999Z,99020.00
2023-02-06T17:28:45.317Z,99024.19
2023-02-06T17:31:13.947Z,99028.25
2023-02-06T17:33:42.042Z,99024.91
2023-02-06T17:36:14.905Z,99026.88
2023-02-06T17:38:43.594Z,99040.00
2023-02-06T17:41:11.494Z,99038.31
2023-02-06T17:43:40.704Z,99036.28
2023-02-06T17:46:10.665Z,99037.28
2023-02-06T17:48:38.337Z,99033.94
2023-02-06T17:51:06.516Z,99034.03
2023-02-06T17:53:34.477Z,99040.38
2023-02-06T17:56:04.860Z,99033.41
2023-02-06T17:58:33.273Z,99043.53
2023-02-06T18:01:02.266Z,99041.66
2023-02-06T18:03:29.945Z,99046.25
2023-02-06T18:05:58.744Z,99033.72
2023-02-06T18:08:26.826Z,99042.47
2023-02-06T18:10:54.455Z,99029.94
2023-02-06T18:13:22.548Z,99034.97
2023-02-06T18:15:50.918Z,99036.94
2023-02-06T18:18:20.201Z,99043.16
2023-02-06T18:20:47.733Z,99048.81
2023-02-06T18:23:16.085Z,99046.88
2023-02-06T18:25:43.722Z,99048.25
2023-02-06T18:28:11.979Z,99047.81
2023-02-06T18:30:40.311Z,99043.34
2023-02-06T18:33:08.494Z,99050.13
2023-02-06T18:35:39.669Z,99058.19
2023-02-06T18:38:07.458Z,99051.25
2023-02-06T18:40:35.227Z,99058.31
2023-02-06T18:43:03.174Z,99060.88
2023-02-06T18:45:31.272Z,99053.81
2023-02-06T18:47:58.982Z,99047.41
2023-02-06T18:50:27.138Z,99045.78
2023-02-06T18:52:57.257Z,99056.50
2023-02-06T18:55:26.620Z,99067.97
2023-02-06T18:57:54.458Z,99061.91
2023-02-06T19:00:23.823Z,99056.00
2023-02-06T19:02:51.858Z,99062.22
2023-02-06T19:05:20.592Z,99061.91
2023-02-06T19:07:52.339Z,99059.34
2023-02-06T19:10:22.923Z,99065.59
2023-02-06T19:12:50.611Z,99075.41
2023-02-06T19:15:19.604Z,99075.72
2023-02-06T19:17:47.326Z,99079.28
2023-02-06T19:20:14.833Z,99076.09
2023-02-06T19:22:43.106Z,99078.97
2023-02-06T19:25:14.333Z,99083.63
2023-02-06T19:27:43.858Z,99085.22
2023-02-06T19:30:12.454Z,99082.34
2023-02-06T19:32:40.285Z,99088.56
2023-02-06T19:35:08.320Z,99085.88
2023-02-06T19:37:35.805Z,99095.63
2023-02-06T19:40:03.576Z,99090.59
2023-02-06T19:42:31.158Z,99094.69
2023-02-06T19:45:00.316Z,99096.47
2023-02-06T19:47:28.097Z,99100.44
2023-02-06T19:49:55.675Z,99104.66
2023-02-06T19:52:23.297Z,99105.47
2023-02-06T19:54:51.379Z,99105.03
2023-02-06T19:57:18.846Z,99097.75
2023-02-06T19:59:46.438Z,99101.16
2023-02-06T20:02:17.169Z,99104.81
2023-02-06T20:04:44.847Z,99112.44
2023-02-06T20:07:12.418Z,99105.84
2023-02-06T20:09:39.970Z,99105.69
2023-02-06T20:12:08.182Z,99098.41
2023-02-06T20:14:35.816Z,99106.31
2023-02-06T20:17:03.588Z,99107.53
2023-02-06T20:19:33.130Z,99109.50
2023-02-06T20:22:00.959Z,99111.34
2023-02-06T20:24:30.551Z,99105.13
2023-02-06T20:27:00.340Z,99107.19
2023-02-06T20:29:30.190Z,99108.72
2023-02-06T20:31:58.593Z,99111.06
2023-02-06T20:34:26.979Z,99112.56
2023-02-06T20:36:57.072Z,99119.16
2023-02-06T20:39:26.092Z,99119.50
2023-02-06T20:41:54.075Z,99116.53
2023-02-06T20:44:21.653Z,99117.28
2023-02-06T20:46:49.212Z,99124.34
2023-02-06T20:49:19.442Z,99125.75
2023-02-06T20:51:47.491Z,99128.44
2023-02-06T20:54:17.285Z,99122.75
2023-02-06T20:56:45.503Z,99125.66
2023-02-06T20:59:14.360Z,99125.09
2023-02-06T21:01:42.875Z,99122.09
2023-02-06T21:04:12.248Z,99127.31
2023-02-06T21:06:40.853Z,99123.78
2023-02-06T21:09:09.096Z,99127.16
2023-02-06T21:11:40.796Z,99124.63
2023-02-06T21:14:09.145Z,99132.25
2023-02-06T21:16:38.190Z,99131.09
2023-02-06T21:19:07.680Z,99140.69
2023-02-06T21:21:35.639Z,99135.47
2023-02-06T21:24:03.683Z,99137.47
2023-02-06T21:26:31.479Z,99135.78
2023-02-06T21:29:01.150Z,99140.31
2023-02-06T21:31:29.498Z,99154.00
2023-02-06T21:33:57.257Z,99157.66
2023-02-06T21:36:24.898Z,99158.56
2023-02-06T21:38:52.973Z,99155.66
2023-02-06T21:41:20.524Z,99156.41
2023-02-06T21:43:48.083Z,99164.13
2023-02-06T21:46:17.132Z,99167.84
2023-02-06T21:48:44.734Z,99177.06
2023-02-06T21:51:14.875Z,99173.72
2023-02-06T21:53:43.336Z,99180.25
2023-02-06T21:56:14.816Z,99178.75
2023-02-06T21:58:42.420Z,99180.63
2023-02-06T22:01:16.763Z,99186.00
2023-02-06T22:03:44.997Z,99179.88
2023-02-06T22:06:13.016Z,99183.81
2023-02-06T22:08:42.149Z,99184.13
2023-02-06T22:11:14.629Z,99185.00
2023-02-06T22:13:42.750Z,99181.66
2023-02-06T22:16:12.044Z,99182.84
2023-02-06T22:18:42.242Z,99185.81
2023-02-06T22:21:11.851Z,99189.53
2023-02-06T22:23:40.042Z,99190.56
2023-02-06T22:26:08.777Z,99189.91
2023-02-06T22:28:36.624Z,99193.56
2023-02-06T22:31:09.228Z,99199.31
2023-02-06T22:33:37.210Z,99199.34
2023-02-06T22:36:08.001Z,99195.31
2023-02-06T22:38:36.324Z,99199.63
2023-02-06T22:41:06.027Z,99194.09
2023-02-06T22:43:36.866Z,99202.00
2023-02-06T22:46:05.431Z,99200.69
2023-02-06T22:48:33.276Z,99206.91
2023-02-06T22:51:07.323Z,99199.84
2023-02-06T22:53:35.797Z,99206.56
2023-02-06T22:56:05.988Z,99199.03
2023-02-06T22:58:34.175Z,99202.84
2023-02-06T23:01:02.860Z,99195.41
2023-02-06T23:03:30.528Z,99195.91
2023-02-06T23:06:01.741Z,99197.47
2023-02-06T23:08:30.921Z,99194.22
2023-02-06T23:10:58.663Z,99188.72
2023-02-06T23:13:26.298Z,99194.09
2023-02-06T23:15:55.848Z,99198.00
2023-02-06T23:18:24.010Z,99199.88
2023-02-06T23:20:54.764Z,99202.19
2023-02-06T23:23:22.858Z,99201.06
2023-02-06T23:25:52.220Z,99204.22
2023-02-06T23:28:20.710Z,99197.03
2023-02-06T23:30:48.881Z,99201.88
2023-02-06T23:33:16.702Z,99204.91
2023-02-06T23:35:44.680Z,99202.25
2023-02-06T23:38:12.706Z,99207.94
2023-02-06T23:40:40.680Z,99199.66
2023-02-06T23:43:10.487Z,99194.94
2023-02-06T23:45:38.422Z,99203.34
2023-02-06T23:48:06.376Z,99197.81
2023-02-06T23:50:34.026Z,99202.38
2023-02-06T23:53:01.575Z,99196.59
2023-02-06T23:55:29.190Z,99193.91
2023-02-06T23:57:57.251Z,99201.34
